Flight Track Log - Related Links

Times and Time Zones

All times are in EDT time to prevent confusion due to time zone crossing. See the N566UA flight status page for this flight to view local times or setup timezone preferences in your user account.

Time Position Orientation Groundspeed Altitude Reporting Facility
EDT Latitude Longitude Course Direction KTS MPH feet Rate Location/Type
Sat 10:55:38 PM 38.9500 -77.5000 270° West 177 204 1,700  Level Potomac TRACON
Sat 10:56:38 PM 38.9167 -77.5667 237° Southwest 212 244 4,800 3,300 Climbing Potomac TRACON
Sat 10:57:00 PM 38.7332 -77.5739 180° South  Level Estimated
Sat 10:57:38 PM 38.8500 -77.5833 191° South 260 299 8,300  Level Potomac TRACON
Sat 10:58:00 PM 38.6261 -77.6306 190° South  Level Estimated
Sat 10:58:44 PM 38.7667 -77.6167 197° South 290 334 11,700  Level Potomac TRACON
Sat 10:59:00 PM 38.5190 -77.6871 185° South  Level Estimated
Sat 10:59:36 PM 38.7036 -77.6694 213° Southwest 332 382 13,800  Level Washington Center
Sat 11:00:00 PM 38.4118 -77.7435 270° West  Level Estimated
Sat 11:00:36 PM 38.6128 -77.7358 210° Southwest 372 428 16,500  Level Washington Center
Sat 11:01:36 PM 38.5200 -77.7994 208° Southwest 384 442 19,000 2,550 Climbing Washington Center
Sat 11:02:36 PM 38.4206 -77.8708 209° Southwest 396 456 21,600 2,500 Climbing Washington Center
Sat 11:03:36 PM 38.3192 -77.9417 209° Southwest 407 468 24,000 2,200 Climbing Washington Center
Sat 11:04:36 PM 38.2156 -78.0125 208° Southwest 415 478 26,000 1,800 Climbing Washington Center
Sat 11:05:36 PM 38.1289 -78.0706 208° Southwest 428 493 27,600 1,650 Climbing Washington Center
Sat 11:06:36 PM 38.0103 -78.1586 210° Southwest 446 513 29,300 2,250 Climbing Washington Center
Sat 11:07:36 PM 37.9036 -78.2631 218° Southwest 446 513 32,100 2,400 Climbing Washington Center
Sat 11:08:36 PM 37.8100 -78.3517 217° Southwest 440 506 34,100 1,850 Climbing Washington Center
Sat 11:09:36 PM 37.7267 -78.4300 217° Southwest 433 498 35,800 950 Climbing Washington Center
Sat 11:10:36 PM 37.6328 -78.5158 216° Southwest 428 493 36,000 100 Climbing Washington Center
Sat 11:11:36 PM 37.5292 -78.5797 206° Southwest 421 484 36,000  Level Washington Center
Sat 11:12:36 PM 37.4192 -78.6356 202° Southwest 421 484 36,000  Level Washington Center
Sat 11:13:36 PM 37.2967 -78.6986 202° Southwest 426 490 36,000  Level Washington Center
Sat 11:14:36 PM 37.1889 -78.7542 202° Southwest 426 490 36,000  Level Washington Center
Sat 11:15:36 PM 37.0789 -78.8122 203° Southwest 426 490 36,000  Level Washington Center
Sat 11:16:36 PM 36.9708 -78.8700 203° Southwest 426 490 36,000  Level Washington Center
Sat 11:17:36 PM 36.8608 -78.9225 201° Southwest 426 490 36,000  Level Washington Center
Sat 11:18:36 PM 36.7614 -78.9753 203° Southwest 426 490 36,000  Level Washington Center
Sat 11:19:36 PM 36.6553 -79.0381 205° Southwest 421 484 36,000  Level Washington Center
Sat 11:20:36 PM 36.5472 -79.0928 202° Southwest 421 484 36,000  Level Washington Center
Sat 11:21:36 PM 36.4331 -79.1444 200° South 426 490 36,000  Level Washington Center
Sat 11:22:36 PM 36.3269 -79.2067 205° Southwest 426 490 36,000  Level Washington Center
Sat 11:23:36 PM 36.2189 -79.2608 202° Southwest 421 484 36,000  Level Washington Center
Sat 11:24:35 PM 36.1047 -79.3069 198° South 421 484 36,000  Level Washington Center
Sat 11:25:36 PM 35.9928 -79.3531 198° South 426 490 36,000  Level Washington Center
Sat 11:26:36 PM 35.8783 -79.4064 201° Southwest 431 496 36,000  Level Washington Center
Sat 11:27:36 PM 35.7578 -79.4569 199° South 421 484 36,000  Level Washington Center
Sat 11:28:35 PM 35.6478 -79.5053 200° South 426 490 36,000  Level Washington Center
Sat 11:29:35 PM 35.5417 -79.5511 199° South 437 503 36,000  Level Washington Center
Sat 11:30:35 PM 35.4275 -79.5992 199° South 437 503 36,000  Level Washington Center
Sat 11:31:35 PM 35.3153 -79.6469 199° South 432 497 36,000  Level Washington Center
Sat 11:32:35 PM 35.2031 -79.6947 199° South 432 497 36,000  Level Washington Center
Sat 11:34:39 PM 34.9606 -79.8000 200° South 421 484 36,000  Level Jacksonville Center
Sat 11:35:40 PM 34.8469 -79.8469 199° South 421 484 36,000  Level Jacksonville Center
Sat 11:36:40 PM 34.7353 -79.8939 199° South 421 484 36,000  Level Jacksonville Center
Sat 11:37:40 PM 34.6239 -79.9433 200° South 421 484 36,000  Level Jacksonville Center
Sat 11:38:40 PM 34.5267 -79.9817 198° South 415 478 36,000 -50 Level Jacksonville Center
Sat 11:39:40 PM 34.4153 -80.0308 200° South 415 478 35,900  Descending Jacksonville Center
Sat 11:40:40 PM 34.2994 -80.0800 199° South 422 486 36,000 50 Climbing Jacksonville Center
Sat 11:41:39 PM 34.1858 -80.1236 198° South 428 493 36,000  Level Jacksonville Center
Sat 11:42:40 PM 34.0719 -80.1725 200° South 433 498 36,000 -50 Level Jacksonville Center
Sat 11:43:40 PM 33.9603 -80.2186 199° South 433 498 35,900  Descending Jacksonville Center
Sat 11:44:40 PM 33.8486 -80.2669 200° South 433 498 36,000 50 Climbing Jacksonville Center
Sat 11:45:39 PM 33.7350 -80.3128 199° South 433 498 36,000  Level Jacksonville Center
Sat 11:46:39 PM 33.6231 -80.3583 199° South 433 498 36,000  Level Jacksonville Center
Sat 11:47:40 PM 33.5094 -80.4064 199° South 433 498 36,000  Level Jacksonville Center
Sat 11:48:40 PM 33.3956 -80.4519 198° South 433 498 36,000 -50 Level Jacksonville Center
Sat 11:49:39 PM 33.2836 -80.4997 200° South 433 498 35,900  Descending Jacksonville Center
Sat 11:50:39 PM 33.1697 -80.5450 198° South 433 498 36,000 50 Climbing Jacksonville Center
Sat 11:51:39 PM 33.0558 -80.5903 198° South 433 498 36,000 -50 Level Jacksonville Center
Sat 11:52:39 PM 32.9294 -80.6428 199° South 440 506 35,900 -50 Descending Jacksonville Center
Sat 11:53:40 PM 32.8175 -80.6853 198° South 440 506 35,900 50 Level Jacksonville Center
Sat 11:54:39 PM 32.7056 -80.7300 199° South 440 506 36,000 50 Climbing Jacksonville Center
Sat 11:55:39 PM 32.5936 -80.7744 198° South 434 499 36,000 -50 Level Jacksonville Center
Sat 11:56:39 PM 32.4794 -80.8214 199° South 429 494 35,900  Descending Jacksonville Center
Sat 11:57:39 PM 32.3717 -80.8683 200° South 429 494 36,000 50 Climbing Jacksonville Center
Sat 11:58:39 PM 32.2597 -80.9100 197° South 429 494 36,000 -613 Level Jacksonville Center
Sun 12:00:00 AM 32.1126 -80.9518 198° South  Level FlightAware Approximate
Sun 12:07:00 AM 31.3715 -81.2378 199° South  Level FlightAware Approximate
Sun 12:08:00 AM 31.2660 -81.2797 199° South  Level FlightAware Approximate
Sun 12:09:00 AM 31.1604 -81.3216 199° South  Level FlightAware Approximate
Sun 12:10:00 AM 31.0549 -81.3633 199° South  Level FlightAware Approximate
Sun 12:11:00 AM 30.9493 -81.4050 199° South  Level FlightAware Approximate
Sun 12:12:00 AM 30.8437 -81.4465 199° South  Level FlightAware Approximate
Sun 12:13:00 AM 30.7382 -81.4881 199° South  Level FlightAware Approximate
Sun 12:14:00 AM 30.6328 -81.5303 199° South  Level FlightAware Approximate
Sun 12:15:00 AM 30.5275 -81.5724 199° South  Level FlightAware Approximate
Sun 12:16:00 AM 30.4216 -81.6128 198° South  Level FlightAware Approximate
Sun 12:17:00 AM 30.3156 -81.6526 198° South  Level FlightAware Approximate
Sun 12:18:00 AM 30.2097 -81.6928 199° South  Level FlightAware Approximate
Sun 12:19:00 AM 30.1041 -81.7339 198° South  Level FlightAware Approximate
Sun 12:20:00 AM 29.9981 -81.7736 198° South  Level FlightAware Approximate
Sun 12:21:00 AM 29.8921 -81.8134 198° South  Level FlightAware Approximate
Sun 12:22:00 AM 29.7865 -81.8545 196° South  Level FlightAware Approximate
Sun 12:23:00 AM 29.6786 -81.8857 203° Southwest  Level FlightAware Approximate
Sun 12:24:00 AM 29.5749 -81.9323 198° South  Level FlightAware Approximate
Sun 12:25:00 AM 29.4688 -81.9715 196° South  Level FlightAware Approximate
Sun 12:26:00 AM 29.3622 -82.0088 197° South  Level FlightAware Approximate
Sun 12:27:00 AM 29.2558 -82.0468 197° South  Level FlightAware Approximate
Sun 12:28:00 AM 29.1495 -82.0851 198° South  Level FlightAware Approximate
Sun 12:28:39 AM 29.0014 -82.1567 200° South 367 422 17,000  Level Jacksonville Center
Sun 12:29:00 AM 29.0433 -82.1237 198° South  Level FlightAware Approximate
Sun 12:29:39 AM 28.9161 -82.1906 199° South 367 422 15,900  Level Jacksonville Center
Sun 12:30:00 AM 28.9379 -82.1644 204° Southwest  Level FlightAware Approximate
Sun 12:30:39 AM 28.8181 -82.2267 198° South 367 422 14,800  Level Jacksonville Center
Sun 12:31:00 AM 28.8358 -82.2154 204° Southwest  Level FlightAware Approximate
Sun 12:32:00 AM 28.7289 -82.2511 192° South  Level FlightAware Approximate
Sun 12:32:14 AM 28.6500 -82.2833 196° South 366 421 13,000  Level Tampa TRACON
Sun 12:33:00 AM 28.6208 -82.2820 196° South  Level FlightAware Approximate
Sun 12:33:14 AM 28.5667 -82.3167 199° South 357 411 11,500  Level Tampa TRACON
Sun 12:34:00 AM 28.5150 -82.3215 200° South  Level FlightAware Approximate
Sun 12:34:14 AM 28.4667 -82.3500 196° South 349 402 11,000  Level Tampa TRACON
Sun 12:35:14 AM 28.3667 -82.3833 196° South 350 403 11,000  Level Tampa TRACON
Sun 12:36:14 AM 28.2833 -82.4167 199° South 347 399 11,000 -350 Level Tampa TRACON
Sun 12:37:14 AM 28.2000 -82.4167 180° South 314 361 10,300 -1,050 Descending Tampa TRACON
Sun 12:38:14 AM 28.1167 -82.4167 180° South 292 336 8,900 -1,800 Descending Tampa TRACON
Sun 12:39:14 AM 28.0333 -82.4167 180° South 276 318 6,700 -2,000 Descending Tampa TRACON
Sun 12:40:14 AM 27.9667 -82.4333 192° South 259 298 4,900 -1,600 Descending Tampa TRACON
Sun 12:41:14 AM 27.9000 -82.4500 192° South 226 260 3,500 -1,400 Descending Tampa TRACON

Login

Don't have an account? Register now (free) for customized features, flight alerts, and more!